sensor_id;sensor_type;location;lat;lon;timestamp;P1;durP1;ratioP1;P2;durP2;ratioP2
74269;SDS011;62754;48.252;11.654;2022-10-31T00:01:20;11.98;;;6.93;;
74269;SDS011;62754;48.252;11.654;2022-10-31T00:03:53;14.68;;;6.95;;
74269;SDS011;62754;48.252;11.654;2022-10-31T00:06:20;12.98;;;6.50;;
74269;SDS011;62754;48.252;11.654;2022-10-31T00:08:47;16.17;;;7.63;;
74269;SDS011;62754;48.252;11.654;2022-10-31T00:11:17;12.20;;;7.20;;
74269;SDS011;62754;48.252;11.654;2022-10-31T00:13:43;14.43;;;6.57;;
74269;SDS011;62754;48.252;11.654;2022-10-31T00:16:18;19.63;;;7.03;;
74269;SDS011;62754;48.252;11.654;2022-10-31T00:18:49;12.25;;;6.03;;
74269;SDS011;62754;48.252;11.654;2022-10-31T00:21:16;13.80;;;7.15;;
74269;SDS011;62754;48.252;11.654;2022-10-31T00:23:42;14.27;;;6.95;;
74269;SDS011;62754;48.252;11.654;2022-10-31T00:26:08;13.40;;;6.93;;
74269;SDS011;62754;48.252;11.654;2022-10-31T00:28:33;14.70;;;6.82;;
74269;SDS011;62754;48.252;11.654;2022-10-31T00:31:00;12.30;;;6.55;;
74269;SDS011;62754;48.252;11.654;2022-10-31T00:33:27;12.73;;;7.38;;
74269;SDS011;62754;48.252;11.654;2022-10-31T00:35:53;15.43;;;6.00;;
74269;SDS011;62754;48.252;11.654;2022-10-31T00:38:19;12.60;;;5.95;;
74269;SDS011;62754;48.252;11.654;2022-10-31T00:40:45;13.30;;;6.63;;
74269;SDS011;62754;48.252;11.654;2022-10-31T00:43:11;16.83;;;7.10;;
74269;SDS011;62754;48.252;11.654;2022-10-31T00:45:37;15.45;;;7.18;;
74269;SDS011;62754;48.252;11.654;2022-10-31T00:48:03;13.60;;;6.88;;
74269;SDS011;62754;48.252;11.654;2022-10-31T00:50:28;16.27;;;7.70;;
74269;SDS011;62754;48.252;11.654;2022-10-31T00:52:54;16.27;;;7.47;;
74269;SDS011;62754;48.252;11.654;2022-10-31T00:55:20;15.73;;;7.05;;
74269;SDS011;62754;48.252;11.654;2022-10-31T00:57:46;11.52;;;6.45;;
74269;SDS011;62754;48.252;11.654;2022-10-31T01:00:12;16.63;;;7.68;;
74269;SDS011;62754;48.252;11.654;2022-10-31T01:02:38;14.15;;;6.93;;
74269;SDS011;62754;48.252;11.654;2022-10-31T01:05:04;14.23;;;7.95;;
74269;SDS011;62754;48.252;11.654;2022-10-31T01:07:30;13.90;;;6.93;;
74269;SDS011;62754;48.252;11.654;2022-10-31T01:09:56;17.88;;;6.90;;
74269;SDS011;62754;48.252;11.654;2022-10-31T01:12:21;15.82;;;6.90;;
74269;SDS011;62754;48.252;11.654;2022-10-31T01:14:47;10.65;;;6.00;;
74269;SDS011;62754;48.252;11.654;2022-10-31T01:17:13;14.57;;;7.70;;
74269;SDS011;62754;48.252;11.654;2022-10-31T01:19:39;11.90;;;6.50;;
74269;SDS011;62754;48.252;11.654;2022-10-31T01:22:05;15.18;;;7.40;;
74269;SDS011;62754;48.252;11.654;2022-10-31T01:24:31;12.00;;;6.85;;
74269;SDS011;62754;48.252;11.654;2022-10-31T01:26:57;13.00;;;6.28;;
74269;SDS011;62754;48.252;11.654;2022-10-31T01:29:23;14.43;;;7.05;;
74269;SDS011;62754;48.252;11.654;2022-10-31T01:31:49;12.85;;;6.60;;
74269;SDS011;62754;48.252;11.654;2022-10-31T01:34:15;15.07;;;7.00;;
74269;SDS011;62754;48.252;11.654;2022-10-31T01:36:42;16.52;;;8.18;;
74269;SDS011;62754;48.252;11.654;2022-10-31T01:39:10;16.65;;;8.38;;
74269;SDS011;62754;48.252;11.654;2022-10-31T01:41:39;16.73;;;7.85;;
74269;SDS011;62754;48.252;11.654;2022-10-31T01:47:01;13.05;;;7.50;;
74269;SDS011;62754;48.252;11.654;2022-10-31T01:49:43;14.95;;;7.95;;
74269;SDS011;62754;48.252;11.654;2022-10-31T01:52:27;15.45;;;6.95;;
74269;SDS011;62754;48.252;11.654;2022-10-31T01:55:02;13.55;;;7.20;;
74269;SDS011;62754;48.252;11.654;2022-10-31T01:57:37;14.77;;;7.60;;
74269;SDS011;62754;48.252;11.654;2022-10-31T02:00:07;10.68;;;6.82;;
74269;SDS011;62754;48.252;11.654;2022-10-31T02:02:34;14.15;;;6.97;;
74269;SDS011;62754;48.252;11.654;2022-10-31T02:05:01;13.35;;;6.45;;
74269;SDS011;62754;48.252;11.654;2022-10-31T02:07:33;13.75;;;6.53;;
74269;SDS011;62754;48.252;11.654;2022-10-31T02:10:03;13.43;;;6.40;;
74269;SDS011;62754;48.252;11.654;2022-10-31T02:12:30;15.50;;;6.88;;
74269;SDS011;62754;48.252;11.654;2022-10-31T02:14:58;13.23;;;6.63;;
74269;SDS011;62754;48.252;11.654;2022-10-31T02:17:25;14.35;;;6.90;;
74269;SDS011;62754;48.252;11.654;2022-10-31T02:20:00;16.17;;;7.40;;
74269;SDS011;62754;48.252;11.654;2022-10-31T02:25:51;10.88;;;6.03;;
74269;SDS011;62754;48.252;11.654;2022-10-31T02:31:43;12.40;;;6.13;;
74269;SDS011;62754;48.252;11.654;2022-10-31T02:34:18;13.80;;;6.10;;
74269;SDS011;62754;48.252;11.654;2022-10-31T02:39:37;14.05;;;6.55;;
74269;SDS011;62754;48.252;11.654;2022-10-31T02:47:42;14.43;;;6.80;;
74269;SDS011;62754;48.252;11.654;2022-10-31T02:52:40;12.20;;;6.32;;
74269;SDS011;62754;48.252;11.654;2022-10-31T02:57:49;16.13;;;6.78;;
74269;SDS011;62754;48.252;11.654;2022-10-31T03:00:19;14.05;;;7.13;;
74269;SDS011;62754;48.252;11.654;2022-10-31T03:05:20;13.98;;;7.03;;
74269;SDS011;62754;48.252;11.654;2022-10-31T03:11:00;13.23;;;6.25;;
74269;SDS011;62754;48.252;11.654;2022-10-31T03:13:36;13.07;;;5.85;;
74269;SDS011;62754;48.252;11.654;2022-10-31T03:16:22;13.85;;;6.20;;
74269;SDS011;62754;48.252;11.654;2022-10-31T03:19:14;10.32;;;6.00;;
74269;SDS011;62754;48.252;11.654;2022-10-31T03:21:53;13.50;;;5.68;;
74269;SDS011;62754;48.252;11.654;2022-10-31T03:24:24;13.75;;;6.63;;
74269;SDS011;62754;48.252;11.654;2022-10-31T03:26:56;11.05;;;5.38;;
74269;SDS011;62754;48.252;11.654;2022-10-31T03:29:26;14.52;;;5.95;;
74269;SDS011;62754;48.252;11.654;2022-10-31T03:31:59;14.48;;;5.47;;
74269;SDS011;62754;48.252;11.654;2022-10-31T03:34:28;10.07;;;5.47;;
74269;SDS011;62754;48.252;11.654;2022-10-31T03:36:57;12.93;;;6.07;;
74269;SDS011;62754;48.252;11.654;2022-10-31T03:39:27;12.23;;;5.75;;
74269;SDS011;62754;48.252;11.654;2022-10-31T03:41:58;11.88;;;6.18;;
74269;SDS011;62754;48.252;11.654;2022-10-31T03:44:30;10.88;;;5.40;;
74269;SDS011;62754;48.252;11.654;2022-10-31T03:46:58;9.57;;;5.97;;
74269;SDS011;62754;48.252;11.654;2022-10-31T03:49:25;11.93;;;6.32;;
74269;SDS011;62754;48.252;11.654;2022-10-31T03:51:59;13.20;;;6.20;;
74269;SDS011;62754;48.252;11.654;2022-10-31T03:57:08;11.00;;;5.68;;
74269;SDS011;62754;48.252;11.654;2022-10-31T03:59:36;10.02;;;5.88;;
74269;SDS011;62754;48.252;11.654;2022-10-31T04:02:14;11.77;;;6.47;;
74269;SDS011;62754;48.252;11.654;2022-10-31T04:04:43;10.93;;;5.68;;
74269;SDS011;62754;48.252;11.654;2022-10-31T04:07:10;14.07;;;5.88;;
74269;SDS011;62754;48.252;11.654;2022-10-31T04:12:06;11.68;;;6.05;;
74269;SDS011;62754;48.252;11.654;2022-10-31T04:14:35;11.32;;;6.32;;
74269;SDS011;62754;48.252;11.654;2022-10-31T04:17:05;12.57;;;6.47;;
74269;SDS011;62754;48.252;11.654;2022-10-31T04:19:36;12.60;;;6.75;;
74269;SDS011;62754;48.252;11.654;2022-10-31T04:22:02;12.70;;;5.70;;
74269;SDS011;62754;48.252;11.654;2022-10-31T04:24:28;12.57;;;6.07;;
74269;SDS011;62754;48.252;11.654;2022-10-31T04:26:53;11.43;;;5.70;;
74269;SDS011;62754;48.252;11.654;2022-10-31T04:29:19;12.63;;;5.75;;
74269;SDS011;62754;48.252;11.654;2022-10-31T04:31:45;12.00;;;5.32;;
74269;SDS011;62754;48.252;11.654;2022-10-31T04:34:11;12.60;;;5.30;;
74269;SDS011;62754;48.252;11.654;2022-10-31T04:36:36;9.25;;;5.60;;
74269;SDS011;62754;48.252;11.654;2022-10-31T04:39:02;10.98;;;6.22;;
74269;SDS011;62754;48.252;11.654;2022-10-31T04:41:28;12.27;;;5.53;;
74269;SDS011;62754;48.252;11.654;2022-10-31T04:43:54;12.18;;;5.70;;
74269;SDS011;62754;48.252;11.654;2022-10-31T04:46:19;11.98;;;4.93;;
74269;SDS011;62754;48.252;11.654;2022-10-31T04:48:45;11.60;;;5.65;;
74269;SDS011;62754;48.252;11.654;2022-10-31T04:51:11;15.27;;;6.03;;
74269;SDS011;62754;48.252;11.654;2022-10-31T04:53:37;14.07;;;5.88;;
74269;SDS011;62754;48.252;11.654;2022-10-31T04:56:02;13.43;;;5.82;;
74269;SDS011;62754;48.252;11.654;2022-10-31T04:58:28;11.32;;;5.45;;
74269;SDS011;62754;48.252;11.654;2022-10-31T05:00:54;11.32;;;5.90;;
74269;SDS011;62754;48.252;11.654;2022-10-31T05:03:21;9.32;;;5.43;;
74269;SDS011;62754;48.252;11.654;2022-10-31T05:05:47;11.07;;;5.60;;
74269;SDS011;62754;48.252;11.654;2022-10-31T05:08:13;9.63;;;5.53;;
74269;SDS011;62754;48.252;11.654;2022-10-31T05:10:40;10.38;;;5.53;;
74269;SDS011;62754;48.252;11.654;2022-10-31T05:13:06;10.63;;;5.20;;
74269;SDS011;62754;48.252;11.654;2022-10-31T05:15:32;10.40;;;5.13;;
74269;SDS011;62754;48.252;11.654;2022-10-31T05:17:58;14.60;;;5.82;;
74269;SDS011;62754;48.252;11.654;2022-10-31T05:20:25;12.02;;;5.97;;
74269;SDS011;62754;48.252;11.654;2022-10-31T05:22:53;12.18;;;6.50;;
74269;SDS011;62754;48.252;11.654;2022-10-31T05:25:21;14.50;;;6.80;;
74269;SDS011;62754;48.252;11.654;2022-10-31T05:27:49;12.63;;;5.75;;
74269;SDS011;62754;48.252;11.654;2022-10-31T05:30:17;9.60;;;5.30;;
74269;SDS011;62754;48.252;11.654;2022-10-31T05:32:45;16.33;;;6.15;;
74269;SDS011;62754;48.252;11.654;2022-10-31T05:35:19;12.43;;;5.70;;
74269;SDS011;62754;48.252;11.654;2022-10-31T05:37:52;8.88;;;5.10;;
74269;SDS011;62754;48.252;11.654;2022-10-31T05:40:19;8.27;;;5.28;;
74269;SDS011;62754;48.252;11.654;2022-10-31T05:42:45;11.02;;;6.20;;
74269;SDS011;62754;48.252;11.654;2022-10-31T05:45:13;12.38;;;6.05;;
74269;SDS011;62754;48.252;11.654;2022-10-31T05:47:40;10.68;;;6.03;;
74269;SDS011;62754;48.252;11.654;2022-10-31T05:50:07;13.38;;;6.28;;
74269;SDS011;62754;48.252;11.654;2022-10-31T05:52:33;10.68;;;6.05;;
74269;SDS011;62754;48.252;11.654;2022-10-31T05:54:59;14.35;;;5.72;;
74269;SDS011;62754;48.252;11.654;2022-10-31T05:57:25;15.73;;;7.05;;
74269;SDS011;62754;48.252;11.654;2022-10-31T05:59:51;12.27;;;5.60;;
74269;SDS011;62754;48.252;11.654;2022-10-31T06:02:16;13.57;;;5.47;;
74269;SDS011;62754;48.252;11.654;2022-10-31T06:04:42;10.20;;;5.30;;
74269;SDS011;62754;48.252;11.654;2022-10-31T06:07:08;11.85;;;5.45;;
74269;SDS011;62754;48.252;11.654;2022-10-31T06:09:34;15.30;;;5.45;;
74269;SDS011;62754;48.252;11.654;2022-10-31T06:11:59;11.10;;;6.18;;
74269;SDS011;62754;48.252;11.654;2022-10-31T06:14:25;10.05;;;5.90;;
74269;SDS011;62754;48.252;11.654;2022-10-31T06:16:51;9.32;;;5.43;;
74269;SDS011;62754;48.252;11.654;2022-10-31T06:19:16;10.80;;;5.60;;
74269;SDS011;62754;48.252;11.654;2022-10-31T06:21:42;11.60;;;5.75;;
74269;SDS011;62754;48.252;11.654;2022-10-31T06:24:08;11.35;;;5.55;;
74269;SDS011;62754;48.252;11.654;2022-10-31T06:26:34;9.98;;;5.38;;
74269;SDS011;62754;48.252;11.654;2022-10-31T06:28:59;8.75;;;4.88;;
74269;SDS011;62754;48.252;11.654;2022-10-31T06:31:25;9.95;;;5.53;;
74269;SDS011;62754;48.252;11.654;2022-10-31T06:33:51;12.75;;;5.35;;
74269;SDS011;62754;48.252;11.654;2022-10-31T06:36:17;10.82;;;5.25;;
74269;SDS011;62754;48.252;11.654;2022-10-31T06:38:42;10.40;;;5.03;;
74269;SDS011;62754;48.252;11.654;2022-10-31T06:41:08;10.05;;;5.68;;
74269;SDS011;62754;48.252;11.654;2022-10-31T06:43:34;11.73;;;4.93;;
74269;SDS011;62754;48.252;11.654;2022-10-31T06:46:03;10.52;;;4.72;;
74269;SDS011;62754;48.252;11.654;2022-10-31T06:48:30;11.13;;;5.22;;
74269;SDS011;62754;48.252;11.654;2022-10-31T06:50:59;11.20;;;5.18;;
74269;SDS011;62754;48.252;11.654;2022-10-31T06:53:26;13.48;;;5.43;;
74269;SDS011;62754;48.252;11.654;2022-10-31T06:55:53;12.30;;;5.35;;
74269;SDS011;62754;48.252;11.654;2022-10-31T06:58:22;10.75;;;6.65;;
74269;SDS011;62754;48.252;11.654;2022-10-31T07:00:48;10.98;;;5.18;;
74269;SDS011;62754;48.252;11.654;2022-10-31T07:03:14;11.68;;;4.60;;
74269;SDS011;62754;48.252;11.654;2022-10-31T07:05:41;12.02;;;5.38;;
74269;SDS011;62754;48.252;11.654;2022-10-31T07:08:08;8.38;;;4.78;;
74269;SDS011;62754;48.252;11.654;2022-10-31T07:10:37;10.27;;;4.78;;
74269;SDS011;62754;48.252;11.654;2022-10-31T07:13:05;10.95;;;4.82;;
74269;SDS011;62754;48.252;11.654;2022-10-31T07:15:34;11.85;;;5.53;;
74269;SDS011;62754;48.252;11.654;2022-10-31T07:18:04;10.85;;;5.10;;
74269;SDS011;62754;48.252;11.654;2022-10-31T07:20:32;10.50;;;4.80;;
74269;SDS011;62754;48.252;11.654;2022-10-31T07:22:58;8.70;;;4.20;;
74269;SDS011;62754;48.252;11.654;2022-10-31T07:25:24;8.40;;;4.40;;
74269;SDS011;62754;48.252;11.654;2022-10-31T07:27:50;11.38;;;4.68;;
74269;SDS011;62754;48.252;11.654;2022-10-31T07:30:16;10.23;;;4.28;;
74269;SDS011;62754;48.252;11.654;2022-10-31T07:32:46;9.65;;;4.53;;
74269;SDS011;62754;48.252;11.654;2022-10-31T07:35:14;10.13;;;4.68;;
74269;SDS011;62754;48.252;11.654;2022-10-31T07:37:42;9.80;;;5.03;;
74269;SDS011;62754;48.252;11.654;2022-10-31T07:40:08;11.80;;;4.57;;
74269;SDS011;62754;48.252;11.654;2022-10-31T07:42:38;11.25;;;4.20;;
74269;SDS011;62754;48.252;11.654;2022-10-31T07:45:05;8.35;;;5.03;;
74269;SDS011;62754;48.252;11.654;2022-10-31T07:47:43;7.97;;;4.15;;
74269;SDS011;62754;48.252;11.654;2022-10-31T07:50:15;10.60;;;4.72;;
74269;SDS011;62754;48.252;11.654;2022-10-31T07:52:42;10.23;;;3.83;;
74269;SDS011;62754;48.252;11.654;2022-10-31T07:55:08;9.63;;;4.18;;
74269;SDS011;62754;48.252;11.654;2022-10-31T07:57:34;8.65;;;4.43;;
74269;SDS011;62754;48.252;11.654;2022-10-31T08:00:00;11.68;;;4.68;;
74269;SDS011;62754;48.252;11.654;2022-10-31T08:02:26;10.25;;;4.15;;
74269;SDS011;62754;48.252;11.654;2022-10-31T08:04:52;10.25;;;4.75;;
74269;SDS011;62754;48.252;11.654;2022-10-31T08:07:17;7.55;;;3.58;;
74269;SDS011;62754;48.252;11.654;2022-10-31T08:09:43;8.77;;;3.92;;
74269;SDS011;62754;48.252;11.654;2022-10-31T08:12:09;9.15;;;3.95;;
74269;SDS011;62754;48.252;11.654;2022-10-31T08:14:35;8.45;;;3.72;;
74269;SDS011;62754;48.252;11.654;2022-10-31T08:17:01;9.80;;;4.68;;
74269;SDS011;62754;48.252;11.654;2022-10-31T08:19:26;8.90;;;3.80;;
74269;SDS011;62754;48.252;11.654;2022-10-31T08:21:53;10.18;;;4.32;;
74269;SDS011;62754;48.252;11.654;2022-10-31T08:26:44;9.65;;;4.20;;
74269;SDS011;62754;48.252;11.654;2022-10-31T08:29:10;10.80;;;3.75;;
74269;SDS011;62754;48.252;11.654;2022-10-31T08:31:36;7.63;;;3.67;;
74269;SDS011;62754;48.252;11.654;2022-10-31T08:34:02;11.25;;;4.63;;
74269;SDS011;62754;48.252;11.654;2022-10-31T08:36:28;10.18;;;4.40;;
74269;SDS011;62754;48.252;11.654;2022-10-31T08:38:54;14.70;;;4.70;;
74269;SDS011;62754;48.252;11.654;2022-10-31T08:41:20;8.50;;;4.32;;
74269;SDS011;62754;48.252;11.654;2022-10-31T08:43:45;13.27;;;4.85;;
74269;SDS011;62754;48.252;11.654;2022-10-31T08:46:11;10.43;;;4.28;;
74269;SDS011;62754;48.252;11.654;2022-10-31T08:48:37;9.32;;;4.82;;
74269;SDS011;62754;48.252;11.654;2022-10-31T08:51:03;12.27;;;4.30;;
74269;SDS011;62754;48.252;11.654;2022-10-31T08:53:29;7.68;;;4.40;;
74269;SDS011;62754;48.252;11.654;2022-10-31T08:55:55;14.60;;;5.00;;
74269;SDS011;62754;48.252;11.654;2022-10-31T08:58:21;12.13;;;5.00;;
74269;SDS011;62754;48.252;11.654;2022-10-31T09:00:49;16.77;;;5.03;;
74269;SDS011;62754;48.252;11.654;2022-10-31T09:03:21;13.75;;;5.75;;
74269;SDS011;62754;48.252;11.654;2022-10-31T09:05:54;11.02;;;5.38;;
74269;SDS011;62754;48.252;11.654;2022-10-31T09:08:21;12.20;;;4.95;;
74269;SDS011;62754;48.252;11.654;2022-10-31T09:10:47;11.32;;;5.05;;
74269;SDS011;62754;48.252;11.654;2022-10-31T09:13:18;11.70;;;5.30;;
74269;SDS011;62754;48.252;11.654;2022-10-31T09:15:46;11.82;;;5.00;;
74269;SDS011;62754;48.252;11.654;2022-10-31T09:18:14;12.90;;;5.50;;
74269;SDS011;62754;48.252;11.654;2022-10-31T09:20:41;13.15;;;4.93;;
74269;SDS011;62754;48.252;11.654;2022-10-31T09:23:10;13.20;;;4.60;;
74269;SDS011;62754;48.252;11.654;2022-10-31T09:25:38;9.35;;;5.18;;
74269;SDS011;62754;48.252;11.654;2022-10-31T09:28:04;12.70;;;5.00;;
74269;SDS011;62754;48.252;11.654;2022-10-31T09:30:32;12.55;;;5.70;;
74269;SDS011;62754;48.252;11.654;2022-10-31T09:32:59;11.70;;;4.53;;
74269;SDS011;62754;48.252;11.654;2022-10-31T09:35:26;9.10;;;4.90;;
74269;SDS011;62754;48.252;11.654;2022-10-31T09:37:56;8.52;;;4.65;;
74269;SDS011;62754;48.252;11.654;2022-10-31T09:40:24;14.52;;;5.50;;
74269;SDS011;62754;48.252;11.654;2022-10-31T09:51:45;9.68;;;4.63;;
74269;SDS011;62754;48.252;11.654;2022-10-31T09:54:08;7.60;;;3.80;;
74269;SDS011;62754;48.252;11.654;2022-10-31T09:56:35;9.50;;;3.47;;
74269;SDS011;62754;48.252;11.654;2022-10-31T09:59:03;13.80;;;4.22;;
74269;SDS011;62754;48.252;11.654;2022-10-31T10:07:25;11.43;;;4.20;;
74269;SDS011;62754;48.252;11.654;2022-10-31T10:09:55;8.52;;;3.28;;
74269;SDS011;62754;48.252;11.654;2022-10-31T10:12:28;8.27;;;3.95;;
74269;SDS011;62754;48.252;11.654;2022-10-31T10:18:14;8.60;;;4.18;;
74269;SDS011;62754;48.252;11.654;2022-10-31T10:28:38;9.63;;;4.13;;
74269;SDS011;62754;48.252;11.654;2022-10-31T10:31:07;9.15;;;4.28;;
74269;SDS011;62754;48.252;11.654;2022-10-31T10:33:39;12.45;;;4.63;;
74269;SDS011;62754;48.252;11.654;2022-10-31T10:38:52;8.55;;;3.88;;
74269;SDS011;62754;48.252;11.654;2022-10-31T10:41:21;7.93;;;4.10;;
74269;SDS011;62754;48.252;11.654;2022-10-31T10:43:50;12.65;;;4.30;;
74269;SDS011;62754;48.252;11.654;2022-10-31T10:46:18;7.82;;;3.67;;
74269;SDS011;62754;48.252;11.654;2022-10-31T10:59:54;11.38;;;3.25;;
74269;SDS011;62754;48.252;11.654;2022-10-31T11:02:24;10.88;;;4.07;;
74269;SDS011;62754;48.252;11.654;2022-10-31T11:04:52;8.43;;;3.38;;
74269;SDS011;62754;48.252;11.654;2022-10-31T11:07:20;10.70;;;3.65;;
74269;SDS011;62754;48.252;11.654;2022-10-31T11:09:47;10.25;;;2.78;;
74269;SDS011;62754;48.252;11.654;2022-10-31T11:12:22;9.63;;;3.42;;
74269;SDS011;62754;48.252;11.654;2022-10-31T11:14:55;12.48;;;3.70;;
74269;SDS011;62754;48.252;11.654;2022-10-31T11:17:33;8.00;;;2.97;;
74269;SDS011;62754;48.252;11.654;2022-10-31T11:22:49;8.63;;;3.28;;
74269;SDS011;62754;48.252;11.654;2022-10-31T11:25:27;6.22;;;3.03;;
74269;SDS011;62754;48.252;11.654;2022-10-31T11:27:59;7.15;;;3.05;;
74269;SDS011;62754;48.252;11.654;2022-10-31T11:30:30;8.00;;;3.20;;
74269;SDS011;62754;48.252;11.654;2022-10-31T11:33:00;14.70;;;3.85;;
74269;SDS011;62754;48.252;11.654;2022-10-31T11:35:26;7.40;;;2.90;;
74269;SDS011;62754;48.252;11.654;2022-10-31T11:37:54;8.70;;;2.38;;
74269;SDS011;62754;48.252;11.654;2022-10-31T11:40:24;10.80;;;3.08;;
74269;SDS011;62754;48.252;11.654;2022-10-31T11:42:52;11.40;;;3.00;;
74269;SDS011;62754;48.252;11.654;2022-10-31T11:47:49;7.22;;;2.88;;
74269;SDS011;62754;48.252;11.654;2022-10-31T11:50:20;7.78;;;2.60;;
74269;SDS011;62754;48.252;11.654;2022-10-31T11:52:49;5.80;;;2.92;;
74269;SDS011;62754;48.252;11.654;2022-10-31T11:55:30;7.70;;;2.65;;
74269;SDS011;62754;48.252;11.654;2022-10-31T11:57:59;7.82;;;2.90;;
74269;SDS011;62754;48.252;11.654;2022-10-31T12:03:04;11.88;;;3.78;;
74269;SDS011;62754;48.252;11.654;2022-10-31T12:05:30;8.63;;;3.17;;
74269;SDS011;62754;48.252;11.654;2022-10-31T12:07:56;6.75;;;3.00;;
74269;SDS011;62754;48.252;11.654;2022-10-31T12:10:24;8.77;;;3.00;;
74269;SDS011;62754;48.252;11.654;2022-10-31T12:15:58;7.03;;;2.80;;
74269;SDS011;62754;48.252;11.654;2022-10-31T12:32:21;8.00;;;3.08;;
74269;SDS011;62754;48.252;11.654;2022-10-31T12:35:15;7.55;;;2.90;;
74269;SDS011;62754;48.252;11.654;2022-10-31T12:37:49;8.77;;;2.58;;
74269;SDS011;62754;48.252;11.654;2022-10-31T12:42:53;8.95;;;3.05;;
74269;SDS011;62754;48.252;11.654;2022-10-31T12:53:46;9.63;;;3.72;;
74269;SDS011;62754;48.252;11.654;2022-10-31T12:56:35;9.65;;;3.58;;
74269;SDS011;62754;48.252;11.654;2022-10-31T12:59:04;11.30;;;4.00;;
74269;SDS011;62754;48.252;11.654;2022-10-31T13:01:42;7.82;;;3.95;;
74269;SDS011;62754;48.252;11.654;2022-10-31T13:07:19;12.07;;;3.80;;
74269;SDS011;62754;48.252;11.654;2022-10-31T13:12:37;8.10;;;4.32;;
74269;SDS011;62754;48.252;11.654;2022-10-31T13:17:44;8.48;;;3.78;;
74269;SDS011;62754;48.252;11.654;2022-10-31T13:23:03;6.93;;;4.15;;
74269;SDS011;62754;48.252;11.654;2022-10-31T13:25:31;9.95;;;4.15;;
74269;SDS011;62754;48.252;11.654;2022-10-31T13:28:05;10.70;;;4.20;;
74269;SDS011;62754;48.252;11.654;2022-10-31T13:30:43;9.50;;;4.25;;
74269;SDS011;62754;48.252;11.654;2022-10-31T13:38:33;11.43;;;4.90;;
74269;SDS011;62754;48.252;11.654;2022-10-31T13:48:58;12.80;;;5.40;;
74269;SDS011;62754;48.252;11.654;2022-10-31T13:51:34;15.23;;;5.60;;
74269;SDS011;62754;48.252;11.654;2022-10-31T13:54:01;12.45;;;5.72;;
74269;SDS011;62754;48.252;11.654;2022-10-31T13:59:15;11.02;;;5.55;;
74269;SDS011;62754;48.252;11.654;2022-10-31T14:04:24;11.93;;;6.50;;
74269;SDS011;62754;48.252;11.654;2022-10-31T14:06:59;13.00;;;6.88;;
74269;SDS011;62754;48.252;11.654;2022-10-31T14:09:36;15.88;;;7.15;;
74269;SDS011;62754;48.252;11.654;2022-10-31T14:12:06;11.40;;;7.50;;
74269;SDS011;62754;48.252;11.654;2022-10-31T14:14:41;15.23;;;6.93;;
74269;SDS011;62754;48.252;11.654;2022-10-31T14:17:16;11.57;;;7.20;;
74269;SDS011;62754;48.252;11.654;2022-10-31T14:22:35;18.30;;;7.85;;
74269;SDS011;62754;48.252;11.654;2022-10-31T14:25:24;13.60;;;7.50;;
74269;SDS011;62754;48.252;11.654;2022-10-31T14:27:54;13.30;;;7.03;;
74269;SDS011;62754;48.252;11.654;2022-10-31T14:30:22;17.73;;;7.18;;
74269;SDS011;62754;48.252;11.654;2022-10-31T14:33:32;14.35;;;6.65;;
74269;SDS011;62754;48.252;11.654;2022-10-31T14:35:46;12.20;;;7.45;;
74269;SDS011;62754;48.252;11.654;2022-10-31T14:52:40;14.20;;;7.10;;
74269;SDS011;62754;48.252;11.654;2022-10-31T14:55:12;12.90;;;7.05;;
74269;SDS011;62754;48.252;11.654;2022-10-31T14:57:41;12.30;;;6.40;;
74269;SDS011;62754;48.252;11.654;2022-10-31T15:00:18;14.48;;;7.47;;
74269;SDS011;62754;48.252;11.654;2022-10-31T15:05:51;11.30;;;7.82;;
74269;SDS011;62754;48.252;11.654;2022-10-31T15:08:37;14.20;;;7.40;;
74269;SDS011;62754;48.252;11.654;2022-10-31T15:11:18;15.07;;;7.22;;
74269;SDS011;62754;48.252;11.654;2022-10-31T15:13:54;17.83;;;7.80;;
74269;SDS011;62754;48.252;11.654;2022-10-31T15:16:25;13.93;;;7.60;;
74269;SDS011;62754;48.252;11.654;2022-10-31T15:19:04;15.63;;;8.07;;
74269;SDS011;62754;48.252;11.654;2022-10-31T15:21:32;11.00;;;6.72;;
74269;SDS011;62754;48.252;11.654;2022-10-31T15:23:59;29.00;;;14.35;;
74269;SDS011;62754;48.252;11.654;2022-10-31T15:26:29;19.73;;;10.73;;
74269;SDS011;62754;48.252;11.654;2022-10-31T15:31:28;13.98;;;8.40;;
74269;SDS011;62754;48.252;11.654;2022-10-31T15:33:55;15.30;;;8.23;;
74269;SDS011;62754;48.252;11.654;2022-10-31T15:36:25;11.60;;;7.70;;
74269;SDS011;62754;48.252;11.654;2022-10-31T15:38:51;14.90;;;7.50;;
74269;SDS011;62754;48.252;11.654;2022-10-31T15:43:59;15.50;;;7.93;;
74269;SDS011;62754;48.252;11.654;2022-10-31T15:46:59;17.13;;;8.93;;
74269;SDS011;62754;48.252;11.654;2022-10-31T15:54:53;15.90;;;9.93;;
74269;SDS011;62754;48.252;11.654;2022-10-31T15:57:21;20.77;;;9.43;;
74269;SDS011;62754;48.252;11.654;2022-10-31T15:59:49;15.40;;;8.52;;
74269;SDS011;62754;48.252;11.654;2022-10-31T16:02:18;15.35;;;8.82;;
74269;SDS011;62754;48.252;11.654;2022-10-31T16:04:49;16.05;;;8.93;;
74269;SDS011;62754;48.252;11.654;2022-10-31T16:07:18;19.23;;;8.35;;
74269;SDS011;62754;48.252;11.654;2022-10-31T16:12:48;17.33;;;8.10;;
74269;SDS011;62754;48.252;11.654;2022-10-31T16:15:14;15.07;;;8.82;;
74269;SDS011;62754;48.252;11.654;2022-10-31T16:17:42;12.18;;;7.97;;
74269;SDS011;62754;48.252;11.654;2022-10-31T16:20:46;15.00;;;8.02;;
74269;SDS011;62754;48.252;11.654;2022-10-31T16:25:40;14.43;;;8.15;;
74269;SDS011;62754;48.252;11.654;2022-10-31T16:28:16;14.88;;;8.23;;
74269;SDS011;62754;48.252;11.654;2022-10-31T16:30:44;13.93;;;8.23;;
74269;SDS011;62754;48.252;11.654;2022-10-31T16:33:25;14.80;;;8.30;;
74269;SDS011;62754;48.252;11.654;2022-10-31T16:35:55;15.15;;;8.82;;
74269;SDS011;62754;48.252;11.654;2022-10-31T16:38:22;15.85;;;8.80;;
74269;SDS011;62754;48.252;11.654;2022-10-31T16:40:49;17.27;;;8.18;;
74269;SDS011;62754;48.252;11.654;2022-10-31T16:43:17;16.80;;;8.20;;
74269;SDS011;62754;48.252;11.654;2022-10-31T16:45:46;17.27;;;8.68;;
74269;SDS011;62754;48.252;11.654;2022-10-31T16:48:14;14.32;;;8.38;;
74269;SDS011;62754;48.252;11.654;2022-10-31T16:50:42;16.02;;;8.95;;
74269;SDS011;62754;48.252;11.654;2022-10-31T16:55:40;15.88;;;8.75;;
74269;SDS011;62754;48.252;11.654;2022-10-31T16:58:15;16.63;;;10.55;;
74269;SDS011;62754;48.252;11.654;2022-10-31T17:00:44;18.38;;;8.98;;
74269;SDS011;62754;48.252;11.654;2022-10-31T17:03:10;16.48;;;9.43;;
74269;SDS011;62754;48.252;11.654;2022-10-31T17:05:36;16.33;;;10.48;;
74269;SDS011;62754;48.252;11.654;2022-10-31T17:08:01;19.17;;;9.95;;
74269;SDS011;62754;48.252;11.654;2022-10-31T17:10:27;15.35;;;9.50;;
74269;SDS011;62754;48.252;11.654;2022-10-31T17:12:53;20.77;;;10.55;;
74269;SDS011;62754;48.252;11.654;2022-10-31T17:15:20;23.45;;;11.20;;
74269;SDS011;62754;48.252;11.654;2022-10-31T17:17:49;22.85;;;12.15;;
74269;SDS011;62754;48.252;11.654;2022-10-31T17:20:17;22.67;;;11.15;;
74269;SDS011;62754;48.252;11.654;2022-10-31T17:22:47;19.13;;;12.40;;
74269;SDS011;62754;48.252;11.654;2022-10-31T17:25:14;22.42;;;12.52;;
74269;SDS011;62754;48.252;11.654;2022-10-31T17:27:41;19.90;;;12.48;;
74269;SDS011;62754;48.252;11.654;2022-10-31T17:30:07;22.48;;;13.02;;
74269;SDS011;62754;48.252;11.654;2022-10-31T17:32:33;22.75;;;12.63;;
74269;SDS011;62754;48.252;11.654;2022-10-31T17:34:59;22.92;;;13.40;;